Mae Imaculada — CURI2 — position and weather

sailwx.info

Track history (hours):
 
Tides and Currents Weather Stations Pressure Air Temp Water Temp Dewpoint Dewpoint Depression Visibility Wind Speed Wind Dir Waves Ship Positions

Mae Imaculada

Last reported at 2018-Jul-20 09:42 UTC. Time now 2018-Jul-20 12:14 UTC.
Position N 37°06' W 008°40'.

Length 18 m.

Type: Fishing. MMSI: 263411470.

Date/timePositionNaut miles runAvg speedWind from/ knotsBaromVisibWave heightAir tempDewpointWater temp
2018-Jul-20 09:42N 37°06' W 008°40'0 0.0
2018-Jul-20 09:29N 37°06' W 008°40'0 0.3
2018-Jul-20 08:51N 37°06' W 008°40'0 0.0
2018-Jul-20 08:29N 37°06' W 008°40'1 1.5
2018-Jul-20 08:00N 37°06' W 008°40'4 7.7
2018-Jul-20 07:30N 37°02' W 008°40'4 7.7
2018-Jul-20 07:00N 36°58' W 008°40'4 7.8
2018-Jul-20 06:28N 36°54' W 008°41'3 4.2
2018-Jul-20 05:50N 36°52' W 008°43'1 2.3
2018-Jul-20 05:12N 36°52' W 008°41'0 0.9
2018-Jul-20 04:59N 36°52' W 008°41'1 1.6
2018-Jul-20 04:30N 36°52' W 008°42'2 1.8
2018-Jul-20 03:34N 36°53' W 008°44'0 2.9
2018-Jul-20 03:30N 36°53' W 008°45'2 2.6
2018-Jul-20 02:47N 36°52' W 008°46'1 0.9
2018-Jul-20 01:20N 36°52' W 008°45'0 0.9
2018-Jul-20 00:59N 36°52' W 008°44'0 0.1
2018-Jul-19 22:11N 36°53' W 008°44'0 2.3
2018-Jul-19 22:00N 36°53' W 008°44'1 2.0
2018-Jul-19 21:30N 36°52' W 008°42'1 1.5
2018-Jul-19 20:59N 36°52' W 008°42'1 1.7
2018-Jul-19 20:31N 36°52' W 008°41'1 2.6
2018-Jul-19 20:01N 36°52' W 008°42'1 1.1
2018-Jul-19 19:29N 36°52' W 008°43'0 1.0
2018-Jul-19 19:00N 36°52' W 008°42'1 1.5
2018-Jul-19 18:30N 36°52' W 008°41'1 1.3
2018-Jul-19 18:00N 36°52' W 008°40'0 0.8
2018-Jul-19 17:27N 36°52' W 008°40'2 3.2
2018-Jul-19 16:58N 36°51' W 008°42'1 2.6
2018-Jul-19 16:29N 36°52' W 008°43'0 0.4
2018-Jul-19 15:54N 36°52' W 008°43'1 1.4
2018-Jul-19 15:29N 36°52' W 008°42'1 1.4
2018-Jul-19 15:00N 36°52' W 008°41'1 1.4
2018-Jul-19 14:29N 36°52' W 008°41'0 0.4
2018-Jul-19 13:24N 36°52' W 008°40'1 1.7
2018-Jul-19 13:01N 36°51' W 008°41'2 4.8
2018-Jul-19 12:30N 36°52' W 008°44'1 2.1
2018-Jul-19 11:58N 36°52' W 008°45'1 0.2
2018-Jul-19 09:39N 36°52' W 008°45'1 7.5
2018-Jul-19 09:29N 36°51' W 008°47'4 2.1
2018-Jul-19 07:42N 36°54' W 008°44'2 7.5
2018-Jul-19 07:30N 36°56' W 008°43'5 7.2
2018-Jul-19 06:49N 37°00' W 008°41'2 7.4
2018-Jul-19 06:30N 37°03' W 008°40'4 6.5
2018-Jul-19 05:56N 37°06' W 008°40'0 0.5
2018-Jul-19 05:29N 37°06' W 008°40'0 0.0
2018-Jul-19 05:00N 37°06' W 008°40'0 0.0
2018-Jul-18 17:58N 37°06' W 008°40'0 0.0
2018-Jul-18 17:30N 37°06' W 008°40'0 0.0
2018-Jul-18 17:00N 37°06' W 008°40'  
2018-Jul-12 21:52N 37°06' W 008°40'0 0.0
2018-Jul-12 21:30N 37°06' W 008°40'0 0.2
2018-Jul-12 20:45N 37°06' W 008°40'0 0.0
2018-Jul-12 20:30N 37°06' W 008°40'0 0.0
2018-Jul-12 19:59N 37°06' W 008°40'0 0.0
2018-Jul-12 19:29N 37°06' W 008°40'0 0.0
2018-Jul-12 18:58N 37°06' W 008°40'0 0.0
2018-Jul-12 18:29N 37°06' W 008°40'0 0.0
2018-Jul-12 17:48N 37°06' W 008°40'0 0.0
2018-Jul-12 15:54N 37°06' W 008°40'0 0.0
2018-Jul-12 15:27N 37°06' W 008°40'0 0.0
2018-Jul-12 14:53N 37°06' W 008°40'0 0.0
2018-Jul-12 14:30N 37°06' W 008°40'0 0.0
2018-Jul-12 14:00N 37°06' W 008°40'0 0.0
2018-Jul-12 12:31N 37°06' W 008°40'0 0.0
2018-Jul-12 12:29N 37°06' W 008°40'0 0.0
2018-Jul-12 12:00N 37°06' W 008°40'0 0.0
2018-Jul-12 11:28N 37°06' W 008°40'0 0.0
2018-Jul-12 11:00N 37°06' W 008°40'0 0.0
2018-Jul-12 10:30N 37°06' W 008°40'0 0.0
2018-Jul-12 09:54N 37°06' W 008°40'0 0.4
2018-Jul-12 09:30N 37°06' W 008°40'0 0.0
2018-Jul-12 09:00N 37°06' W 008°40'0 0.0
2018-Jul-12 08:30N 37°06' W 008°40'0 0.0
2018-Jul-12 08:00N 37°06' W 008°40'16 1.1
2018-Jul-11 18:11N 36°51' W 008°47'0 0.2
2018-Jul-11 16:42N 36°52' W 008°47'1 1.5
2018-Jul-11 16:10N 36°52' W 008°46'0 1.8
2018-Jul-11 16:00N 36°52' W 008°46'1 1.6
2018-Jul-11 15:30N 36°52' W 008°45'2 3.0
2018-Jul-11 14:53N 36°52' W 008°42'1 3.4
2018-Jul-11 14:29N 36°52' W 008°41'1 2.7
2018-Jul-11 14:00N 36°52' W 008°42'  
Track history (hours):
 
Tides and Currents Weather Stations Pressure Air Temp Water Temp Dewpoint Dewpoint Depression Visibility Wind Speed Wind Dir Waves Ship Positions

Mae Imaculada

Last reported at 2018-Jul-20 09:42 UTC. Time now 2018-Jul-20 12:14 UTC.
Position N 37°06' W 008°40'.

Length 18 m.

Type: Fishing. MMSI: 263411470.

Date/timePositionNaut miles runAvg speedWind from/ knotsBaromVisibWave heightAir tempDewpointWater temp
2018-Jul-20 09:42N 37°06' W 008°40'0 0.0
2018-Jul-20 09:29N 37°06' W 008°40'0 0.3
2018-Jul-20 08:51N 37°06' W 008°40'0 0.0
2018-Jul-20 08:29N 37°06' W 008°40'1 1.5
2018-Jul-20 08:00N 37°06' W 008°40'4 7.7
2018-Jul-20 07:30N 37°02' W 008°40'4 7.7
2018-Jul-20 07:00N 36°58' W 008°40'4 7.8
2018-Jul-20 06:28N 36°54' W 008°41'3 4.2
2018-Jul-20 05:50N 36°52' W 008°43'1 2.3
2018-Jul-20 05:12N 36°52' W 008°41'0 0.9
2018-Jul-20 04:59N 36°52' W 008°41'1 1.6
2018-Jul-20 04:30N 36°52' W 008°42'2 1.8
2018-Jul-20 03:34N 36°53' W 008°44'0 2.9
2018-Jul-20 03:30N 36°53' W 008°45'2 2.6
2018-Jul-20 02:47N 36°52' W 008°46'1 0.9
2018-Jul-20 01:20N 36°52' W 008°45'0 0.9
2018-Jul-20 00:59N 36°52' W 008°44'0 0.1
2018-Jul-19 22:11N 36°53' W 008°44'0 2.3
2018-Jul-19 22:00N 36°53' W 008°44'1 2.0
2018-Jul-19 21:30N 36°52' W 008°42'1 1.5
2018-Jul-19 20:59N 36°52' W 008°42'1 1.7
2018-Jul-19 20:31N 36°52' W 008°41'1 2.6
2018-Jul-19 20:01N 36°52' W 008°42'1 1.1
2018-Jul-19 19:29N 36°52' W 008°43'0 1.0
2018-Jul-19 19:00N 36°52' W 008°42'1 1.5
2018-Jul-19 18:30N 36°52' W 008°41'1 1.3
2018-Jul-19 18:00N 36°52' W 008°40'0 0.8
2018-Jul-19 17:27N 36°52' W 008°40'2 3.2
2018-Jul-19 16:58N 36°51' W 008°42'1 2.6
2018-Jul-19 16:29N 36°52' W 008°43'0 0.4
2018-Jul-19 15:54N 36°52' W 008°43'1 1.4
2018-Jul-19 15:29N 36°52' W 008°42'1 1.4
2018-Jul-19 15:00N 36°52' W 008°41'1 1.4
2018-Jul-19 14:29N 36°52' W 008°41'0 0.4
2018-Jul-19 13:24N 36°52' W 008°40'1 1.7
2018-Jul-19 13:01N 36°51' W 008°41'2 4.8
2018-Jul-19 12:30N 36°52' W 008°44'1 2.1
2018-Jul-19 11:58N 36°52' W 008°45'1 0.2
2018-Jul-19 09:39N 36°52' W 008°45'1 7.5
2018-Jul-19 09:29N 36°51' W 008°47'4 2.1
2018-Jul-19 07:42N 36°54' W 008°44'2 7.5
2018-Jul-19 07:30N 36°56' W 008°43'5 7.2
2018-Jul-19 06:49N 37°00' W 008°41'2 7.4
2018-Jul-19 06:30N 37°03' W 008°40'4 6.5
2018-Jul-19 05:56N 37°06' W 008°40'0 0.5
2018-Jul-19 05:29N 37°06' W 008°40'0 0.0
2018-Jul-19 05:00N 37°06' W 008°40'0 0.0
2018-Jul-18 17:58N 37°06' W 008°40'0 0.0
2018-Jul-18 17:30N 37°06' W 008°40'0 0.0
2018-Jul-18 17:00N 37°06' W 008°40'  
2018-Jul-12 21:52N 37°06' W 008°40'0 0.0
2018-Jul-12 21:30N 37°06' W 008°40'0 0.2
2018-Jul-12 20:45N 37°06' W 008°40'0 0.0
2018-Jul-12 20:30N 37°06' W 008°40'0 0.0
2018-Jul-12 19:59N 37°06' W 008°40'0 0.0
2018-Jul-12 19:29N 37°06' W 008°40'0 0.0
2018-Jul-12 18:58N 37°06' W 008°40'0 0.0
2018-Jul-12 18:29N 37°06' W 008°40'0 0.0
2018-Jul-12 17:48N 37°06' W 008°40'0 0.0
2018-Jul-12 15:54N 37°06' W 008°40'0 0.0
2018-Jul-12 15:27N 37°06' W 008°40'0 0.0
2018-Jul-12 14:53N 37°06' W 008°40'0 0.0
2018-Jul-12 14:30N 37°06' W 008°40'0 0.0
2018-Jul-12 14:00N 37°06' W 008°40'0 0.0
2018-Jul-12 12:31N 37°06' W 008°40'0 0.0
2018-Jul-12 12:29N 37°06' W 008°40'0 0.0
2018-Jul-12 12:00N 37°06' W 008°40'0 0.0
2018-Jul-12 11:28N 37°06' W 008°40'0 0.0
2018-Jul-12 11:00N 37°06' W 008°40'0 0.0
2018-Jul-12 10:30N 37°06' W 008°40'0 0.0
2018-Jul-12 09:54N 37°06' W 008°40'0 0.4
2018-Jul-12 09:30N 37°06' W 008°40'0 0.0
2018-Jul-12 09:00N 37°06' W 008°40'0 0.0
2018-Jul-12 08:30N 37°06' W 008°40'0 0.0
2018-Jul-12 08:00N 37°06' W 008°40'16 1.1
2018-Jul-11 18:11N 36°51' W 008°47'0 0.2
2018-Jul-11 16:42N 36°52' W 008°47'1 1.5
2018-Jul-11 16:10N 36°52' W 008°46'0 1.8
2018-Jul-11 16:00N 36°52' W 008°46'1 1.6
2018-Jul-11 15:30N 36°52' W 008°45'2 3.0
2018-Jul-11 14:53N 36°52' W 008°42'1 3.4
2018-Jul-11 14:29N 36°52' W 008°41'1 2.7
2018-Jul-11 14:00N 36°52' W 008°42'  

Dump ship's entire track history